sensor_id;sensor_type;location;lat;lon;timestamp;temperature;humidity
53254;DHT22;39148;53.332;6.922;2022-09-09T00:02:19;19.40;80.70
53254;DHT22;39148;53.332;6.922;2022-09-09T00:07:49;19.40;79.80
53254;DHT22;39148;53.332;6.922;2022-09-09T00:10:29;19.40;80.00
53254;DHT22;39148;53.332;6.922;2022-09-09T00:21:06;19.30;79.90
53254;DHT22;39148;53.332;6.922;2022-09-09T00:23:38;19.30;81.00
53254;DHT22;39148;53.332;6.922;2022-09-09T00:26:48;19.30;81.00
53254;DHT22;39148;53.332;6.922;2022-09-09T00:29:29;19.30;79.90
53254;DHT22;39148;53.332;6.922;2022-09-09T00:32:20;19.30;79.80
53254;DHT22;39148;53.332;6.922;2022-09-09T00:35:18;19.30;79.70
53254;DHT22;39148;53.332;6.922;2022-09-09T00:37:48;19.30;79.90
53254;DHT22;39148;53.332;6.922;2022-09-09T00:42:49;19.20;81.00
53254;DHT22;39148;53.332;6.922;2022-09-09T00:48:09;19.50;80.10
53254;DHT22;39148;53.332;6.922;2022-09-09T00:50:59;19.30;81.60
53254;DHT22;39148;53.332;6.922;2022-09-09T00:53:37;19.30;80.10
53254;DHT22;39148;53.332;6.922;2022-09-09T00:56:14;19.20;80.00
53254;DHT22;39148;53.332;6.922;2022-09-09T00:58:46;19.20;80.00
53254;DHT22;39148;53.332;6.922;2022-09-09T01:01:16;19.20;81.00
53254;DHT22;39148;53.332;6.922;2022-09-09T01:03:57;19.10;80.80
53254;DHT22;39148;53.332;6.922;2022-09-09T01:06:35;19.20;81.10
53254;DHT22;39148;53.332;6.922;2022-09-09T01:09:26;19.20;79.90
53254;DHT22;39148;53.332;6.922;2022-09-09T01:12:09;19.30;81.40
53254;DHT22;39148;53.332;6.922;2022-09-09T01:17:31;19.30;79.80
53254;DHT22;39148;53.332;6.922;2022-09-09T01:20:08;19.00;79.90
53254;DHT22;39148;53.332;6.922;2022-09-09T01:26:04;19.20;80.00
53254;DHT22;39148;53.332;6.922;2022-09-09T01:28:36;19.10;80.20
53254;DHT22;39148;53.332;6.922;2022-09-09T01:31:04;19.20;81.10
53254;DHT22;39148;53.332;6.922;2022-09-09T01:33:31;19.10;81.00
53254;DHT22;39148;53.332;6.922;2022-09-09T01:38:27;19.00;79.80
53254;DHT22;39148;53.332;6.922;2022-09-09T01:40:53;18.90;80.90
53254;DHT22;39148;53.332;6.922;2022-09-09T01:43:22;19.00;80.80
53254;DHT22;39148;53.332;6.922;2022-09-09T01:45:51;19.10;81.10
53254;DHT22;39148;53.332;6.922;2022-09-09T01:48:19;19.00;81.00
53254;DHT22;39148;53.332;6.922;2022-09-09T01:50:45;18.90;80.90
53254;DHT22;39148;53.332;6.922;2022-09-09T01:53:12;19.00;80.80
53254;DHT22;39148;53.332;6.922;2022-09-09T01:55:40;19.00;80.90
53254;DHT22;39148;53.332;6.922;2022-09-09T02:03:53;19.00;80.00
53254;DHT22;39148;53.332;6.922;2022-09-09T02:08:56;18.90;79.90
53254;DHT22;39148;53.332;6.922;2022-09-09T02:11:24;19.00;81.00
53254;DHT22;39148;53.332;6.922;2022-09-09T02:13:57;18.90;81.50
53254;DHT22;39148;53.332;6.922;2022-09-09T02:16:37;18.90;81.20
53254;DHT22;39148;53.332;6.922;2022-09-09T02:19:06;19.00;81.30
53254;DHT22;39148;53.332;6.922;2022-09-09T02:21:34;18.90;81.00
53254;DHT22;39148;53.332;6.922;2022-09-09T02:24:05;18.80;81.00
53254;DHT22;39148;53.332;6.922;2022-09-09T02:26:39;18.90;81.00
53254;DHT22;39148;53.332;6.922;2022-09-09T02:29:11;18.90;81.10
53254;DHT22;39148;53.332;6.922;2022-09-09T02:31:38;18.90;81.10
53254;DHT22;39148;53.332;6.922;2022-09-09T02:34:05;18.80;81.20
53254;DHT22;39148;53.332;6.922;2022-09-09T02:36:34;18.80;81.00
53254;DHT22;39148;53.332;6.922;2022-09-09T02:39:01;18.80;81.10
53254;DHT22;39148;53.332;6.922;2022-09-09T02:41:34;18.80;81.10
53254;DHT22;39148;53.332;6.922;2022-09-09T02:44:01;18.80;81.20
53254;DHT22;39148;53.332;6.922;2022-09-09T02:46:53;18.80;81.10
53254;DHT22;39148;53.332;6.922;2022-09-09T02:58:02;18.80;81.20
53254;DHT22;39148;53.332;6.922;2022-09-09T03:00:31;18.60;81.10
53254;DHT22;39148;53.332;6.922;2022-09-09T03:02:58;18.70;81.00
53254;DHT22;39148;53.332;6.922;2022-09-09T03:05:23;18.60;80.90
53254;DHT22;39148;53.332;6.922;2022-09-09T03:07:49;18.80;81.00
53254;DHT22;39148;53.332;6.922;2022-09-09T03:10:16;18.60;80.90
53254;DHT22;39148;53.332;6.922;2022-09-09T03:12:42;18.70;81.10
53254;DHT22;39148;53.332;6.922;2022-09-09T03:15:08;18.70;80.90
53254;DHT22;39148;53.332;6.922;2022-09-09T03:17:35;18.60;80.80
53254;DHT22;39148;53.332;6.922;2022-09-09T03:20:05;18.60;80.90
53254;DHT22;39148;53.332;6.922;2022-09-09T03:22:31;18.70;80.00
53254;DHT22;39148;53.332;6.922;2022-09-09T03:24:56;18.60;80.90
53254;DHT22;39148;53.332;6.922;2022-09-09T03:27:22;18.60;81.00
53254;DHT22;39148;53.332;6.922;2022-09-09T03:29:48;18.60;80.90
53254;DHT22;39148;53.332;6.922;2022-09-09T03:32:17;18.60;81.00
53254;DHT22;39148;53.332;6.922;2022-09-09T03:34:43;18.60;81.20
53254;DHT22;39148;53.332;6.922;2022-09-09T03:37:08;18.60;81.50
53254;DHT22;39148;53.332;6.922;2022-09-09T03:39:34;18.60;81.00
53254;DHT22;39148;53.332;6.922;2022-09-09T03:42:00;18.60;81.10
53254;DHT22;39148;53.332;6.922;2022-09-09T03:44:29;18.60;81.10
53254;DHT22;39148;53.332;6.922;2022-09-09T03:46:55;18.60;81.20
53254;DHT22;39148;53.332;6.922;2022-09-09T03:49:21;18.70;81.20
53254;DHT22;39148;53.332;6.922;2022-09-09T03:51:48;18.60;81.20
53254;DHT22;39148;53.332;6.922;2022-09-09T03:54:14;18.50;81.10
53254;DHT22;39148;53.332;6.922;2022-09-09T03:56:39;18.50;81.20
53254;DHT22;39148;53.332;6.922;2022-09-09T03:59:07;18.50;81.20
53254;DHT22;39148;53.332;6.922;2022-09-09T04:01:34;18.50;81.20
53254;DHT22;39148;53.332;6.922;2022-09-09T04:04:00;18.50;81.20
53254;DHT22;39148;53.332;6.922;2022-09-09T04:06:27;18.50;81.20
53254;DHT22;39148;53.332;6.922;2022-09-09T04:08:53;18.50;81.20
53254;DHT22;39148;53.332;6.922;2022-09-09T04:11:20;18.50;81.20
53254;DHT22;39148;53.332;6.922;2022-09-09T04:13:46;18.50;81.30
53254;DHT22;39148;53.332;6.922;2022-09-09T04:16:13;18.50;81.80
53254;DHT22;39148;53.332;6.922;2022-09-09T04:18:40;18.50;81.30
53254;DHT22;39148;53.332;6.922;2022-09-09T04:21:06;18.40;81.30
53254;DHT22;39148;53.332;6.922;2022-09-09T04:23:32;18.70;81.40
53254;DHT22;39148;53.332;6.922;2022-09-09T04:26:00;18.40;81.30
53254;DHT22;39148;53.332;6.922;2022-09-09T04:28:29;18.50;81.40
53254;DHT22;39148;53.332;6.922;2022-09-09T04:30:55;18.40;81.40
53254;DHT22;39148;53.332;6.922;2022-09-09T04:33:24;18.50;81.30
53254;DHT22;39148;53.332;6.922;2022-09-09T04:35:52;18.40;81.40
53254;DHT22;39148;53.332;6.922;2022-09-09T04:38:19;18.50;80.40
53254;DHT22;39148;53.332;6.922;2022-09-09T04:40:48;18.30;81.30
53254;DHT22;39148;53.332;6.922;2022-09-09T04:43:14;18.40;81.30
53254;DHT22;39148;53.332;6.922;2022-09-09T04:45:41;18.40;81.70
53254;DHT22;39148;53.332;6.922;2022-09-09T04:48:08;18.40;81.40
53254;DHT22;39148;53.332;6.922;2022-09-09T04:50:35;18.40;81.40
53254;DHT22;39148;53.332;6.922;2022-09-09T04:53:04;18.40;81.30
53254;DHT22;39148;53.332;6.922;2022-09-09T04:55:30;18.30;81.90
53254;DHT22;39148;53.332;6.922;2022-09-09T04:57:57;18.40;81.50
53254;DHT22;39148;53.332;6.922;2022-09-09T05:00:24;18.30;81.40
53254;DHT22;39148;53.332;6.922;2022-09-09T05:02:49;18.30;81.90
53254;DHT22;39148;53.332;6.922;2022-09-09T05:05:16;18.40;81.40
53254;DHT22;39148;53.332;6.922;2022-09-09T05:07:42;18.40;81.40
53254;DHT22;39148;53.332;6.922;2022-09-09T05:10:09;18.30;81.40
53254;DHT22;39148;53.332;6.922;2022-09-09T05:12:35;18.40;81.60
53254;DHT22;39148;53.332;6.922;2022-09-09T05:15:01;18.30;81.40
53254;DHT22;39148;53.332;6.922;2022-09-09T05:17:27;18.30;81.50
53254;DHT22;39148;53.332;6.922;2022-09-09T05:19:53;18.30;81.50
53254;DHT22;39148;53.332;6.922;2022-09-09T05:22:22;18.30;81.40
53254;DHT22;39148;53.332;6.922;2022-09-09T05:24:49;18.40;81.60
53254;DHT22;39148;53.332;6.922;2022-09-09T05:27:17;18.30;81.50
53254;DHT22;39148;53.332;6.922;2022-09-09T05:29:45;18.30;82.00
53254;DHT22;39148;53.332;6.922;2022-09-09T05:32:11;18.30;81.50
53254;DHT22;39148;53.332;6.922;2022-09-09T05:34:37;18.20;81.40
53254;DHT22;39148;53.332;6.922;2022-09-09T05:37:05;18.30;80.60
53254;DHT22;39148;53.332;6.922;2022-09-09T05:39:33;18.30;81.50
53254;DHT22;39148;53.332;6.922;2022-09-09T05:41:59;18.20;81.40
53254;DHT22;39148;53.332;6.922;2022-09-09T05:44:24;18.30;81.40
53254;DHT22;39148;53.332;6.922;2022-09-09T05:46:53;18.30;81.50
53254;DHT22;39148;53.332;6.922;2022-09-09T05:49:19;18.30;81.50
53254;DHT22;39148;53.332;6.922;2022-09-09T05:51:45;18.20;81.40
53254;DHT22;39148;53.332;6.922;2022-09-09T05:54:11;18.30;81.50
53254;DHT22;39148;53.332;6.922;2022-09-09T05:56:40;18.20;81.40
53254;DHT22;39148;53.332;6.922;2022-09-09T05:59:06;18.30;81.40
53254;DHT22;39148;53.332;6.922;2022-09-09T06:01:34;18.20;81.40
53254;DHT22;39148;53.332;6.922;2022-09-09T06:04:00;18.30;81.60
53254;DHT22;39148;53.332;6.922;2022-09-09T06:06:31;18.40;81.30
53254;DHT22;39148;53.332;6.922;2022-09-09T06:08:57;18.20;81.60
53254;DHT22;39148;53.332;6.922;2022-09-09T06:11:26;18.20;81.50
53254;DHT22;39148;53.332;6.922;2022-09-09T06:13:52;18.30;81.60
53254;DHT22;39148;53.332;6.922;2022-09-09T06:16:22;18.30;81.40
53254;DHT22;39148;53.332;6.922;2022-09-09T06:18:55;18.30;81.60
53254;DHT22;39148;53.332;6.922;2022-09-09T06:23:49;18.10;81.30
53254;DHT22;39148;53.332;6.922;2022-09-09T06:26:18;18.20;81.30
53254;DHT22;39148;53.332;6.922;2022-09-09T06:28:45;18.20;81.50
53254;DHT22;39148;53.332;6.922;2022-09-09T06:31:13;18.20;81.50
53254;DHT22;39148;53.332;6.922;2022-09-09T06:33:41;18.20;81.50
53254;DHT22;39148;53.332;6.922;2022-09-09T06:36:15;18.20;81.50
53254;DHT22;39148;53.332;6.922;2022-09-09T06:38:44;18.20;80.40
53254;DHT22;39148;53.332;6.922;2022-09-09T06:41:12;18.20;81.70
53254;DHT22;39148;53.332;6.922;2022-09-09T06:43:38;18.20;81.60
53254;DHT22;39148;53.332;6.922;2022-09-09T06:46:05;18.20;81.50
53254;DHT22;39148;53.332;6.922;2022-09-09T06:48:31;18.20;81.50
53254;DHT22;39148;53.332;6.922;2022-09-09T06:51:21;18.20;81.50
53254;DHT22;39148;53.332;6.922;2022-09-09T06:53:50;18.30;81.80
53254;DHT22;39148;53.332;6.922;2022-09-09T06:56:20;18.20;81.70
53254;DHT22;39148;53.332;6.922;2022-09-09T06:58:47;18.20;81.70
53254;DHT22;39148;53.332;6.922;2022-09-09T07:01:19;18.10;81.40
53254;DHT22;39148;53.332;6.922;2022-09-09T07:03:50;18.30;81.80
53254;DHT22;39148;53.332;6.922;2022-09-09T07:06:22;18.20;81.60
53254;DHT22;39148;53.332;6.922;2022-09-09T07:09:00;18.10;81.60
53254;DHT22;39148;53.332;6.922;2022-09-09T07:11:32;18.10;81.60
53254;DHT22;39148;53.332;6.922;2022-09-09T07:13:59;18.20;82.00
53254;DHT22;39148;53.332;6.922;2022-09-09T07:16:25;18.20;81.40
53254;DHT22;39148;53.332;6.922;2022-09-09T07:18:53;18.10;81.40
53254;DHT22;39148;53.332;6.922;2022-09-09T07:21:24;18.20;81.50
53254;DHT22;39148;53.332;6.922;2022-09-09T07:23:52;18.20;81.40
53254;DHT22;39148;53.332;6.922;2022-09-09T07:26:20;18.10;81.40
53254;DHT22;39148;53.332;6.922;2022-09-09T07:28:47;18.10;81.40
53254;DHT22;39148;53.332;6.922;2022-09-09T07:31:15;18.10;81.40
53254;DHT22;39148;53.332;6.922;2022-09-09T07:33:42;18.10;81.40
53254;DHT22;39148;53.332;6.922;2022-09-09T07:36:17;18.20;81.40
53254;DHT22;39148;53.332;6.922;2022-09-09T07:38:49;18.10;80.20
53254;DHT22;39148;53.332;6.922;2022-09-09T07:41:23;18.10;81.50
53254;DHT22;39148;53.332;6.922;2022-09-09T07:43:49;18.10;81.50
53254;DHT22;39148;53.332;6.922;2022-09-09T07:46:17;18.10;81.30
53254;DHT22;39148;53.332;6.922;2022-09-09T07:48:52;18.10;81.40
53254;DHT22;39148;53.332;6.922;2022-09-09T07:51:26;18.20;81.50
53254;DHT22;39148;53.332;6.922;2022-09-09T07:53:55;18.10;81.50
53254;DHT22;39148;53.332;6.922;2022-09-09T07:56:22;18.10;81.30
53254;DHT22;39148;53.332;6.922;2022-09-09T07:58:49;18.20;81.60
53254;DHT22;39148;53.332;6.922;2022-09-09T08:01:26;18.40;81.50
53254;DHT22;39148;53.332;6.922;2022-09-09T08:03:55;18.20;80.30
53254;DHT22;39148;53.332;6.922;2022-09-09T08:06:21;18.20;81.40
53254;DHT22;39148;53.332;6.922;2022-09-09T08:08:50;18.20;81.30
53254;DHT22;39148;53.332;6.922;2022-09-09T08:11:17;18.20;81.40
53254;DHT22;39148;53.332;6.922;2022-09-09T08:13:43;18.20;81.20
53254;DHT22;39148;53.332;6.922;2022-09-09T08:16:10;18.20;81.30
53254;DHT22;39148;53.332;6.922;2022-09-09T08:18:37;18.20;81.20
53254;DHT22;39148;53.332;6.922;2022-09-09T08:21:14;18.00;81.20
53254;DHT22;39148;53.332;6.922;2022-09-09T08:23:44;18.20;81.50
53254;DHT22;39148;53.332;6.922;2022-09-09T08:26:15;18.30;81.40
53254;DHT22;39148;53.332;6.922;2022-09-09T08:28:42;18.10;81.30
53254;DHT22;39148;53.332;6.922;2022-09-09T08:31:18;18.20;81.20
53254;DHT22;39148;53.332;6.922;2022-09-09T08:33:44;18.20;81.40
53254;DHT22;39148;53.332;6.922;2022-09-09T08:36:19;18.20;81.10
53254;DHT22;39148;53.332;6.922;2022-09-09T08:38:50;18.30;81.40
53254;DHT22;39148;53.332;6.922;2022-09-09T08:43:50;18.20;80.70
53254;DHT22;39148;53.332;6.922;2022-09-09T08:46:34;18.10;81.10
53254;DHT22;39148;53.332;6.922;2022-09-09T08:49:19;18.30;80.10
53254;DHT22;39148;53.332;6.922;2022-09-09T08:51:48;18.20;80.10
53254;DHT22;39148;53.332;6.922;2022-09-09T08:54:15;18.30;81.20
53254;DHT22;39148;53.332;6.922;2022-09-09T08:56:41;18.30;81.00
53254;DHT22;39148;53.332;6.922;2022-09-09T08:59:10;18.30;80.90
53254;DHT22;39148;53.332;6.922;2022-09-09T09:01:48;18.30;81.20
53254;DHT22;39148;53.332;6.922;2022-09-09T09:13:02;18.30;80.00
53254;DHT22;39148;53.332;6.922;2022-09-09T09:15:36;18.10;80.70
53254;DHT22;39148;53.332;6.922;2022-09-09T09:18:04;18.40;81.20
53254;DHT22;39148;53.332;6.922;2022-09-09T09:20:58;18.30;80.90
53254;DHT22;39148;53.332;6.922;2022-09-09T09:23:35;18.40;80.00
53254;DHT22;39148;53.332;6.922;2022-09-09T09:26:07;18.40;81.00
53254;DHT22;39148;53.332;6.922;2022-09-09T09:28:35;18.40;81.00
53254;DHT22;39148;53.332;6.922;2022-09-09T09:31:07;18.40;80.90
53254;DHT22;39148;53.332;6.922;2022-09-09T09:36:07;18.50;79.80
53254;DHT22;39148;53.332;6.922;2022-09-09T09:38:35;18.40;80.90
53254;DHT22;39148;53.332;6.922;2022-09-09T09:41:01;18.50;81.00
53254;DHT22;39148;53.332;6.922;2022-09-09T09:43:33;18.50;80.90
53254;DHT22;39148;53.332;6.922;2022-09-09T09:46:00;18.50;79.90
53254;DHT22;39148;53.332;6.922;2022-09-09T09:48:27;18.40;80.90
53254;DHT22;39148;53.332;6.922;2022-09-09T09:50:57;18.50;81.00
53254;DHT22;39148;53.332;6.922;2022-09-09T09:53:26;18.50;81.00
53254;DHT22;39148;53.332;6.922;2022-09-09T09:56:01;18.50;81.00
53254;DHT22;39148;53.332;6.922;2022-09-09T09:58:30;18.50;81.10
53254;DHT22;39148;53.332;6.922;2022-09-09T10:00:58;18.50;80.90
53254;DHT22;39148;53.332;6.922;2022-09-09T10:03:27;18.50;80.80
53254;DHT22;39148;53.332;6.922;2022-09-09T10:05:54;18.50;80.90
53254;DHT22;39148;53.332;6.922;2022-09-09T10:08:23;18.60;80.80
53254;DHT22;39148;53.332;6.922;2022-09-09T10:11:42;18.60;80.90
53254;DHT22;39148;53.332;6.922;2022-09-09T10:14:21;18.50;79.80
53254;DHT22;39148;53.332;6.922;2022-09-09T10:17:01;18.60;79.80
53254;DHT22;39148;53.332;6.922;2022-09-09T10:19:36;18.70;79.70
53254;DHT22;39148;53.332;6.922;2022-09-09T10:38:17;18.80;79.80
53254;DHT22;39148;53.332;6.922;2022-09-09T10:51:30;18.90;80.60
53254;DHT22;39148;53.332;6.922;2022-09-09T10:56:41;18.90;80.90
53254;DHT22;39148;53.332;6.922;2022-09-09T10:59:14;19.00;80.80
53254;DHT22;39148;53.332;6.922;2022-09-09T11:04:22;19.00;79.60
53254;DHT22;39148;53.332;6.922;2022-09-09T11:06:54;18.90;80.80
53254;DHT22;39148;53.332;6.922;2022-09-09T11:09:33;19.00;80.70
53254;DHT22;39148;53.332;6.922;2022-09-09T11:12:01;19.00;80.70
53254;DHT22;39148;53.332;6.922;2022-09-09T11:15:04;19.00;80.90
53254;DHT22;39148;53.332;6.922;2022-09-09T11:17:44;19.10;79.90
53254;DHT22;39148;53.332;6.922;2022-09-09T11:20:12;19.10;79.60
53254;DHT22;39148;53.332;6.922;2022-09-09T11:25:26;19.20;79.70
53254;DHT22;39148;53.332;6.922;2022-09-09T11:30:32;19.20;79.30
53254;DHT22;39148;53.332;6.922;2022-09-09T11:40:40;19.30;79.20
53254;DHT22;39148;53.332;6.922;2022-09-09T11:43:16;19.20;80.30
53254;DHT22;39148;53.332;6.922;2022-09-09T11:45:51;19.30;79.40
53254;DHT22;39148;53.332;6.922;2022-09-09T11:48:31;19.30;80.60
53254;DHT22;39148;53.332;6.922;2022-09-09T11:53:32;19.30;79.40
53254;DHT22;39148;53.332;6.922;2022-09-09T11:56:34;19.40;80.20
53254;DHT22;39148;53.332;6.922;2022-09-09T11:59:25;19.40;79.30
53254;DHT22;39148;53.332;6.922;2022-09-09T12:10:39;19.40;79.30
53254;DHT22;39148;53.332;6.922;2022-09-09T12:13:16;19.50;80.70
53254;DHT22;39148;53.332;6.922;2022-09-09T12:15:53;19.70;80.60
53254;DHT22;39148;53.332;6.922;2022-09-09T12:18:25;19.60;80.60
53254;DHT22;39148;53.332;6.922;2022-09-09T12:20:57;19.50;80.40
53254;DHT22;39148;53.332;6.922;2022-09-09T12:26:30;19.70;79.20
53254;DHT22;39148;53.332;6.922;2022-09-09T12:29:21;19.60;79.30
53254;DHT22;39148;53.332;6.922;2022-09-09T12:31:51;19.70;80.80
53254;DHT22;39148;53.332;6.922;2022-09-09T12:37:35;19.70;79.40
53254;DHT22;39148;53.332;6.922;2022-09-09T12:40:05;19.80;80.50
53254;DHT22;39148;53.332;6.922;2022-09-09T12:42:31;19.70;80.20
53254;DHT22;39148;53.332;6.922;2022-09-09T12:45:02;19.80;79.40
53254;DHT22;39148;53.332;6.922;2022-09-09T12:50:22;19.90;79.20
53254;DHT22;39148;53.332;6.922;2022-09-09T12:52:53;19.90;80.40
53254;DHT22;39148;53.332;6.922;2022-09-09T12:55:23;19.80;80.10
53254;DHT22;39148;53.332;6.922;2022-09-09T12:57:51;19.90;80.00
53254;DHT22;39148;53.332;6.922;2022-09-09T13:00:22;19.90;79.80
53254;DHT22;39148;53.332;6.922;2022-09-09T13:03:00;20.00;79.60
53254;DHT22;39148;53.332;6.922;2022-09-09T13:05:28;19.90;79.80
53254;DHT22;39148;53.332;6.922;2022-09-09T13:08:08;20.00;79.70
53254;DHT22;39148;53.332;6.922;2022-09-09T13:10:54;20.00;79.70
53254;DHT22;39148;53.332;6.922;2022-09-09T13:13:26;20.00;79.70
53254;DHT22;39148;53.332;6.922;2022-09-09T13:15:56;20.10;79.50
53254;DHT22;39148;53.332;6.922;2022-09-09T13:18:31;20.00;80.10
53254;DHT22;39148;53.332;6.922;2022-09-09T13:20:57;20.10;78.30
53254;DHT22;39148;53.332;6.922;2022-09-09T13:23:27;20.10;79.30
53254;DHT22;39148;53.332;6.922;2022-09-09T13:26:24;20.20;79.50
53254;DHT22;39148;53.332;6.922;2022-09-09T13:28:52;20.10;79.70
53254;DHT22;39148;53.332;6.922;2022-09-09T13:31:28;20.10;79.60
53254;DHT22;39148;53.332;6.922;2022-09-09T13:33:53;20.20;78.30
53254;DHT22;39148;53.332;6.922;2022-09-09T13:36:31;20.20;79.20
53254;DHT22;39148;53.332;6.922;2022-09-09T13:38:59;20.20;79.60
53254;DHT22;39148;53.332;6.922;2022-09-09T13:41:44;20.20;79.20
53254;DHT22;39148;53.332;6.922;2022-09-09T13:44:25;20.40;79.50
53254;DHT22;39148;53.332;6.922;2022-09-09T13:49:40;20.30;78.40
53254;DHT22;39148;53.332;6.922;2022-09-09T13:52:09;20.30;79.10
53254;DHT22;39148;53.332;6.922;2022-09-09T13:54:35;20.50;79.00
53254;DHT22;39148;53.332;6.922;2022-09-09T13:57:01;20.30;79.00
53254;DHT22;39148;53.332;6.922;2022-09-09T13:59:27;20.40;79.20
53254;DHT22;39148;53.332;6.922;2022-09-09T14:01:53;20.30;79.10
53254;DHT22;39148;53.332;6.922;2022-09-09T14:04:19;20.40;79.10
53254;DHT22;39148;53.332;6.922;2022-09-09T14:06:48;20.40;79.40
53254;DHT22;39148;53.332;6.922;2022-09-09T14:09:16;20.40;79.30
53254;DHT22;39148;53.332;6.922;2022-09-09T14:11:42;20.40;79.30
53254;DHT22;39148;53.332;6.922;2022-09-09T14:14:08;20.40;79.50
53254;DHT22;39148;53.332;6.922;2022-09-09T14:16:34;20.40;79.30
53254;DHT22;39148;53.332;6.922;2022-09-09T14:19:00;20.50;79.30
53254;DHT22;39148;53.332;6.922;2022-09-09T14:21:27;20.40;79.30
53254;DHT22;39148;53.332;6.922;2022-09-09T14:23:54;20.40;79.30
53254;DHT22;39148;53.332;6.922;2022-09-09T14:26:21;20.40;79.10
53254;DHT22;39148;53.332;6.922;2022-09-09T14:28:48;20.50;79.30
53254;DHT22;39148;53.332;6.922;2022-09-09T14:31:14;20.60;79.10
53254;DHT22;39148;53.332;6.922;2022-09-09T14:33:40;20.50;78.90
53254;DHT22;39148;53.332;6.922;2022-09-09T14:36:06;20.60;79.00
53254;DHT22;39148;53.332;6.922;2022-09-09T14:38:34;20.60;78.90
53254;DHT22;39148;53.332;6.922;2022-09-09T14:41:11;20.70;79.10
53254;DHT22;39148;53.332;6.922;2022-09-09T14:43:38;20.60;77.70
53254;DHT22;39148;53.332;6.922;2022-09-09T14:46:08;20.60;78.90
53254;DHT22;39148;53.332;6.922;2022-09-09T14:48:35;20.50;78.80
53254;DHT22;39148;53.332;6.922;2022-09-09T14:51:22;20.70;78.90
53254;DHT22;39148;53.332;6.922;2022-09-09T14:53:59;20.50;78.90
53254;DHT22;39148;53.332;6.922;2022-09-09T14:56:28;20.60;78.80
53254;DHT22;39148;53.332;6.922;2022-09-09T14:58:56;20.70;78.80
53254;DHT22;39148;53.332;6.922;2022-09-09T15:01:23;20.70;78.80
53254;DHT22;39148;53.332;6.922;2022-09-09T15:03:53;20.70;79.20
53254;DHT22;39148;53.332;6.922;2022-09-09T15:06:21;20.70;77.60
53254;DHT22;39148;53.332;6.922;2022-09-09T15:08:47;20.70;78.80
53254;DHT22;39148;53.332;6.922;2022-09-09T15:11:15;20.70;78.70
53254;DHT22;39148;53.332;6.922;2022-09-09T15:13:42;20.70;78.60
53254;DHT22;39148;53.332;6.922;2022-09-09T15:16:11;20.80;78.80
53254;DHT22;39148;53.332;6.922;2022-09-09T15:18:37;20.80;78.80
53254;DHT22;39148;53.332;6.922;2022-09-09T15:21:09;20.70;78.70
53254;DHT22;39148;53.332;6.922;2022-09-09T15:23:36;20.80;78.80
53254;DHT22;39148;53.332;6.922;2022-09-09T15:26:02;20.80;78.80
53254;DHT22;39148;53.332;6.922;2022-09-09T15:28:28;20.80;78.70
53254;DHT22;39148;53.332;6.922;2022-09-09T15:30:54;20.90;78.60
53254;DHT22;39148;53.332;6.922;2022-09-09T15:33:21;20.90;78.70
53254;DHT22;39148;53.332;6.922;2022-09-09T15:35:47;20.80;78.80
53254;DHT22;39148;53.332;6.922;2022-09-09T15:38:14;20.90;78.70
53254;DHT22;39148;53.332;6.922;2022-09-09T15:40:42;20.80;78.70
53254;DHT22;39148;53.332;6.922;2022-09-09T15:43:09;20.80;78.70
53254;DHT22;39148;53.332;6.922;2022-09-09T15:45:36;20.90;78.70
53254;DHT22;39148;53.332;6.922;2022-09-09T15:48:03;20.80;78.50
53254;DHT22;39148;53.332;6.922;2022-09-09T15:50:29;20.90;78.60
53254;DHT22;39148;53.332;6.922;2022-09-09T15:53:01;20.90;78.30
53254;DHT22;39148;53.332;6.922;2022-09-09T15:55:27;20.90;78.60
53254;DHT22;39148;53.332;6.922;2022-09-09T15:57:54;20.90;78.40
53254;DHT22;39148;53.332;6.922;2022-09-09T16:00:20;20.90;78.10
53254;DHT22;39148;53.332;6.922;2022-09-09T16:02:47;20.80;78.40
53254;DHT22;39148;53.332;6.922;2022-09-09T16:05:13;20.80;78.40
53254;DHT22;39148;53.332;6.922;2022-09-09T16:07:39;20.80;78.40
53254;DHT22;39148;53.332;6.922;2022-09-09T16:10:05;20.80;78.20
53254;DHT22;39148;53.332;6.922;2022-09-09T16:12:31;20.90;78.20
53254;DHT22;39148;53.332;6.922;2022-09-09T16:14:57;20.90;78.60
53254;DHT22;39148;53.332;6.922;2022-09-09T16:17:22;20.80;78.50
53254;DHT22;39148;53.332;6.922;2022-09-09T16:19:48;20.90;78.60
53254;DHT22;39148;53.332;6.922;2022-09-09T16:22:14;21.00;78.60
53254;DHT22;39148;53.332;6.922;2022-09-09T16:24:41;20.80;78.60
53254;DHT22;39148;53.332;6.922;2022-09-09T16:27:07;20.80;78.40
53254;DHT22;39148;53.332;6.922;2022-09-09T16:29:33;20.80;78.30
53254;DHT22;39148;53.332;6.922;2022-09-09T16:31:58;20.90;78.60
53254;DHT22;39148;53.332;6.922;2022-09-09T16:34:25;20.80;78.50
53254;DHT22;39148;53.332;6.922;2022-09-09T16:36:51;20.90;78.50
53254;DHT22;39148;53.332;6.922;2022-09-09T16:39:18;20.80;78.50
53254;DHT22;39148;53.332;6.922;2022-09-09T16:41:46;20.90;78.60
53254;DHT22;39148;53.332;6.922;2022-09-09T16:44:14;20.80;78.50
53254;DHT22;39148;53.332;6.922;2022-09-09T16:46:43;20.90;78.70
53254;DHT22;39148;53.332;6.922;2022-09-09T16:49:11;20.90;78.70
53254;DHT22;39148;53.332;6.922;2022-09-09T16:51:45;20.80;78.70
53254;DHT22;39148;53.332;6.922;2022-09-09T16:54:13;20.90;77.50
53254;DHT22;39148;53.332;6.922;2022-09-09T16:56:41;20.80;79.00
53254;DHT22;39148;53.332;6.922;2022-09-09T16:59:10;20.90;78.80
53254;DHT22;39148;53.332;6.922;2022-09-09T17:01:38;20.90;78.70
53254;DHT22;39148;53.332;6.922;2022-09-09T17:04:11;20.80;78.60
53254;DHT22;39148;53.332;6.922;2022-09-09T17:06:38;20.80;78.70
53254;DHT22;39148;53.332;6.922;2022-09-09T17:09:07;20.80;79.00
53254;DHT22;39148;53.332;6.922;2022-09-09T17:11:33;20.80;78.60
53254;DHT22;39148;53.332;6.922;2022-09-09T17:13:59;20.80;78.50
53254;DHT22;39148;53.332;6.922;2022-09-09T17:16:28;20.80;78.50
53254;DHT22;39148;53.332;6.922;2022-09-09T17:18:55;20.70;78.50
53254;DHT22;39148;53.332;6.922;2022-09-09T17:21:23;20.80;78.50
53254;DHT22;39148;53.332;6.922;2022-09-09T17:23:51;20.70;78.50
53254;DHT22;39148;53.332;6.922;2022-09-09T17:26:19;20.70;78.50
53254;DHT22;39148;53.332;6.922;2022-09-09T17:28:45;20.70;78.60
53254;DHT22;39148;53.332;6.922;2022-09-09T17:31:16;20.70;78.60
53254;DHT22;39148;53.332;6.922;2022-09-09T17:33:44;20.70;77.40
53254;DHT22;39148;53.332;6.922;2022-09-09T17:38:45;20.70;78.60
53254;DHT22;39148;53.332;6.922;2022-09-09T17:41:14;20.70;78.50
53254;DHT22;39148;53.332;6.922;2022-09-09T17:43:40;20.70;78.60
53254;DHT22;39148;53.332;6.922;2022-09-09T17:46:34;20.70;78.50
53254;DHT22;39148;53.332;6.922;2022-09-09T17:49:09;20.80;78.90
53254;DHT22;39148;53.332;6.922;2022-09-09T17:51:35;20.70;78.70
53254;DHT22;39148;53.332;6.922;2022-09-09T17:54:04;20.70;78.50
53254;DHT22;39148;53.332;6.922;2022-09-09T17:56:31;20.70;78.60
53254;DHT22;39148;53.332;6.922;2022-09-09T17:58:59;20.70;78.50